createdAt,value
2018-12-18T00:00:05.240Z,1.90
2018-12-18T00:02:34.299Z,1.50
2018-12-18T00:05:05.505Z,1.60
2018-12-18T00:07:34.299Z,1.83
2018-12-18T00:10:03.173Z,1.80
2018-12-18T00:12:32.117Z,1.63
2018-12-18T00:15:00.965Z,1.13
2018-12-18T00:17:29.991Z,1.40
2018-12-18T00:19:58.988Z,1.30
2018-12-18T00:22:27.874Z,1.40
2018-12-18T00:24:56.715Z,1.27
2018-12-18T00:27:25.663Z,1.40
2018-12-18T00:29:54.355Z,1.67
2018-12-18T00:32:25.445Z,1.50
2018-12-18T00:34:54.246Z,1.70
2018-12-18T00:37:23.130Z,1.50
2018-12-18T00:39:51.912Z,1.67
2018-12-18T00:42:21.054Z,1.47
2018-12-18T00:44:49.999Z,1.10
2018-12-18T00:47:19.045Z,1.10
2018-12-18T00:49:48.043Z,1.23
2018-12-18T00:52:17.343Z,1.70
2018-12-18T00:54:46.110Z,1.57
2018-12-18T00:57:15.713Z,1.30
2018-12-18T00:59:44.804Z,1.73
2018-12-18T01:02:13.867Z,1.77
2018-12-18T01:04:42.907Z,2.43
2018-12-18T01:07:11.599Z,1.87
2018-12-18T01:09:40.362Z,2.07
2018-12-18T01:12:09.063Z,1.80
2018-12-18T01:14:38.018Z,1.80
2018-12-18T01:17:08.488Z,1.70
2018-12-18T01:19:39.813Z,1.63
2018-12-18T01:22:11.868Z,1.20
2018-12-18T01:29:51.096Z,1.22
2018-12-18T01:37:36.663Z,1.27
2018-12-18T01:40:06.425Z,1.60
2018-12-18T01:42:35.309Z,1.90
2018-12-18T01:45:04.039Z,2.47
2018-12-18T01:47:32.850Z,1.35
2018-12-18T01:50:01.596Z,1.60
2018-12-18T01:52:30.469Z,1.52
2018-12-18T01:54:59.205Z,2.12
2018-12-18T01:57:28.007Z,1.40
2018-12-18T01:59:56.766Z,1.50
2018-12-18T02:02:25.812Z,1.37
2018-12-18T02:04:54.642Z,1.47
2018-12-18T02:07:23.722Z,1.22
2018-12-18T02:09:53.007Z,1.40
2018-12-18T02:12:21.853Z,1.40
2018-12-18T02:14:50.558Z,1.20
2018-12-18T02:17:19.936Z,1.20
2018-12-18T02:19:48.808Z,1.20
2018-12-18T02:22:17.989Z,1.60
2018-12-18T02:24:46.743Z,1.45
2018-12-18T02:27:15.389Z,1.85
2018-12-18T02:29:44.103Z,1.67
2018-12-18T02:32:12.818Z,1.30
2018-12-18T02:34:41.536Z,2.10
2018-12-18T02:37:10.194Z,1.75
2018-12-18T02:39:38.863Z,1.80
2018-12-18T02:42:07.552Z,1.60
2018-12-18T02:44:36.195Z,1.98
2018-12-18T02:47:04.927Z,1.65
2018-12-18T02:49:33.952Z,2.20
2018-12-18T02:52:02.638Z,1.98
2018-12-18T02:54:31.600Z,1.70
2018-12-18T02:57:00.515Z,1.85
2018-12-18T02:59:29.363Z,1.90
2018-12-18T03:01:58.937Z,2.05
2018-12-18T03:04:28.121Z,2.37
2018-12-18T03:06:56.790Z,2.15
2018-12-18T03:09:25.528Z,2.30
2018-12-18T03:11:54.260Z,2.45
2018-12-18T03:14:22.891Z,2.37
2018-12-18T03:16:52.387Z,2.05
2018-12-18T03:19:21.041Z,1.98
2018-12-18T03:21:49.695Z,2.72
2018-12-18T03:24:18.436Z,2.45
2018-12-18T03:26:47.108Z,2.33
2018-12-18T03:29:15.803Z,2.30
2018-12-18T03:31:46.657Z,2.42
2018-12-18T03:34:15.689Z,2.30
2018-12-18T03:36:44.408Z,2.70
2018-12-18T03:39:20.575Z,3.72
2018-12-18T03:41:49.266Z,3.90
2018-12-18T03:44:18.856Z,3.92
2018-12-18T03:46:47.946Z,3.92
2018-12-18T03:49:17.055Z,5.87
2018-12-18T03:51:45.693Z,6.85
2018-12-18T03:54:14.964Z,4.72
2018-12-18T03:56:44.071Z,5.10
2018-12-18T03:59:12.740Z,5.37
2018-12-18T04:01:41.429Z,4.55
2018-12-18T04:04:10.226Z,5.45
2018-12-18T04:06:38.951Z,4.75
2018-12-18T04:09:07.644Z,7.20
2018-12-18T04:11:38.851Z,5.72
2018-12-18T04:14:07.794Z,6.05
2018-12-18T04:16:36.576Z,5.22
2018-12-18T04:19:05.375Z,6.05
2018-12-18T04:21:34.187Z,5.72
2018-12-18T04:24:02.920Z,5.55
2018-12-18T04:26:31.728Z,5.80
2018-12-18T04:29:00.389Z,7.00
2018-12-18T04:31:29.796Z,5.10
2018-12-18T04:33:58.452Z,5.83
2018-12-18T04:36:27.205Z,6.47
2018-12-18T04:38:55.944Z,5.97
2018-12-18T04:41:24.634Z,6.67
2018-12-18T04:43:53.557Z,6.55
2018-12-18T04:46:22.341Z,7.78
2018-12-18T04:48:51.051Z,5.92
2018-12-18T04:51:19.813Z,7.15
2018-12-18T04:53:48.598Z,6.95
2018-12-18T04:56:17.306Z,5.75
2018-12-18T04:58:46.263Z,5.60
2018-12-18T05:01:14.992Z,5.90
2018-12-18T05:03:43.783Z,5.95
2018-12-18T05:06:12.597Z,6.50
2018-12-18T05:08:41.844Z,5.28
2018-12-18T05:11:10.952Z,6.70
2018-12-18T05:13:40.012Z,7.08
2018-12-18T05:16:09.124Z,6.50
2018-12-18T05:18:38.050Z,6.17
2018-12-18T05:21:07.271Z,5.35
2018-12-18T05:23:37.069Z,3.77
2018-12-18T05:26:06.316Z,4.37
2018-12-18T05:28:35.072Z,3.85
2018-12-18T05:31:03.760Z,4.45
2018-12-18T05:33:32.407Z,5.40
2018-12-18T05:36:01.088Z,6.37
2018-12-18T05:38:29.791Z,5.55
2018-12-18T05:40:58.445Z,6.85
2018-12-18T05:43:28.545Z,5.70
2018-12-18T05:45:57.450Z,6.30
2018-12-18T05:48:26.218Z,6.05
2018-12-18T05:50:54.909Z,6.12
2018-12-18T05:53:23.724Z,5.75
2018-12-18T05:55:52.774Z,6.20
2018-12-18T05:58:21.587Z,6.92
2018-12-18T06:00:50.862Z,8.55
2018-12-18T06:03:19.959Z,11.08
2018-12-18T06:05:49.292Z,7.80
2018-12-18T06:08:18.790Z,7.53
2018-12-18T06:10:48.044Z,7.53
2018-12-18T06:13:17.009Z,7.30
2018-12-18T06:15:45.929Z,7.25
2018-12-18T06:18:14.677Z,8.95
2018-12-18T06:20:43.340Z,9.25
2018-12-18T06:23:11.984Z,7.90
2018-12-18T06:25:40.622Z,8.30
2018-12-18T06:28:09.800Z,7.95
2018-12-18T06:30:38.514Z,7.37
2018-12-18T06:33:08.229Z,7.95
2018-12-18T06:35:37.479Z,7.92
2018-12-18T06:38:06.831Z,9.20
2018-12-18T06:40:35.829Z,8.80
2018-12-18T06:43:04.964Z,7.40
2018-12-18T06:45:33.868Z,6.87
2018-12-18T06:48:03.558Z,10.08
2018-12-18T06:50:32.829Z,10.98
2018-12-18T06:53:01.961Z,5.42
2018-12-18T06:55:31.275Z,6.20
2018-12-18T06:58:00.461Z,6.33
2018-12-18T07:00:29.793Z,7.17
2018-12-18T07:02:59.227Z,6.00
2018-12-18T07:05:27.849Z,8.23
2018-12-18T07:07:57.614Z,8.95
2018-12-18T07:10:29.782Z,6.40
2018-12-18T07:12:58.904Z,5.42
2018-12-18T07:15:28.232Z,7.62
2018-12-18T07:17:57.340Z,8.38
2018-12-18T07:20:26.803Z,13.00
2018-12-18T07:22:55.447Z,16.35
2018-12-18T07:25:24.575Z,18.65
2018-12-18T07:27:54.082Z,15.40
2018-12-18T07:30:23.391Z,19.65
2018-12-18T07:32:52.501Z,20.05
2018-12-18T07:35:23.375Z,16.95
2018-12-18T07:37:52.648Z,19.07
2018-12-18T07:40:21.960Z,20.30
2018-12-18T07:42:51.433Z,17.15
2018-12-18T07:45:20.124Z,15.00
2018-12-18T07:47:49.017Z,11.10
2018-12-18T07:50:17.815Z,14.70
2018-12-18T07:52:46.986Z,11.00
2018-12-18T07:55:16.267Z,8.00
2018-12-18T07:57:45.634Z,9.08
2018-12-18T08:00:14.863Z,9.73
2018-12-18T08:02:44.237Z,11.93
2018-12-18T08:05:13.881Z,8.77
2018-12-18T08:07:43.256Z,9.70
2018-12-18T08:10:12.492Z,9.40
2018-12-18T08:12:41.839Z,8.40
2018-12-18T08:15:10.712Z,7.30
2018-12-18T08:17:39.851Z,7.05
2018-12-18T08:20:09.066Z,6.50
2018-12-18T08:22:38.554Z,5.70
2018-12-18T08:25:08.144Z,6.08
2018-12-18T08:27:37.286Z,4.28
2018-12-18T08:30:08.113Z,4.03
2018-12-18T08:32:36.766Z,4.60
2018-12-18T08:35:06.144Z,4.28
2018-12-18T08:37:34.760Z,3.00
2018-12-18T08:40:03.392Z,2.80
2018-12-18T08:42:32.718Z,1.90
2018-12-18T08:45:02.028Z,2.00
2018-12-18T08:47:31.320Z,1.20
2018-12-18T08:50:00.559Z,1.27
2018-12-18T08:52:29.654Z,1.77
2018-12-18T08:54:58.936Z,1.53
2018-12-18T08:57:28.245Z,1.50
2018-12-18T08:59:57.204Z,1.83
2018-12-18T09:02:26.606Z,1.50
2018-12-18T09:04:55.949Z,1.17
2018-12-18T09:07:25.529Z,1.70
2018-12-18T09:09:54.246Z,1.40
2018-12-18T09:12:23.386Z,1.13
2018-12-18T09:14:58.152Z,1.20
2018-12-18T09:17:32.332Z,1.20
2018-12-18T09:20:00.959Z,1.20
2018-12-18T09:22:29.942Z,1.07
2018-12-18T09:24:58.631Z,1.00
2018-12-18T09:27:27.808Z,0.77
2018-12-18T09:29:57.148Z,1.03
2018-12-18T09:32:26.419Z,1.90
2018-12-18T09:34:55.387Z,1.33
2018-12-18T09:37:24.544Z,3.03
2018-12-18T09:39:53.831Z,1.30
2018-12-18T09:42:28.392Z,1.10
2018-12-18T09:44:58.120Z,0.97
2018-12-18T09:47:27.464Z,1.00
2018-12-18T09:49:56.431Z,0.80
2018-12-18T09:52:25.543Z,1.43
2018-12-18T09:54:54.795Z,0.90
2018-12-18T09:57:29.157Z,1.23
2018-12-18T09:59:58.231Z,0.70
2018-12-18T10:02:27.404Z,1.00
2018-12-18T10:04:56.042Z,1.43
2018-12-18T10:07:25.601Z,1.03
2018-12-18T10:09:54.835Z,1.00
2018-12-18T10:12:29.825Z,0.80
2018-12-18T10:14:58.745Z,0.60
2018-12-18T10:17:27.841Z,1.27
2018-12-18T10:19:56.982Z,0.93
2018-12-18T10:22:26.009Z,0.60
2018-12-18T10:24:55.183Z,0.70
2018-12-18T10:27:24.302Z,1.00
2018-12-18T10:29:53.761Z,0.70
2018-12-18T10:32:22.624Z,0.60
2018-12-18T10:34:52.010Z,1.00
2018-12-18T10:37:21.091Z,0.63
2018-12-18T10:39:50.207Z,0.70
2018-12-18T10:42:19.776Z,0.87
2018-12-18T10:44:49.109Z,0.90
2018-12-18T10:47:17.883Z,0.53
2018-12-18T10:49:46.525Z,0.70
2018-12-18T10:52:15.131Z,0.80
2018-12-18T10:54:44.261Z,1.00
2018-12-18T10:57:13.556Z,0.80
2018-12-18T10:59:43.051Z,1.00
2018-12-18T11:02:13.032Z,0.67
2018-12-18T11:04:42.091Z,0.90
2018-12-18T11:07:11.508Z,0.77
2018-12-18T11:09:41.016Z,0.47
2018-12-18T11:12:10.073Z,0.70
2018-12-18T11:14:39.388Z,0.67
2018-12-18T11:17:08.667Z,0.50
2018-12-18T11:19:37.893Z,0.70
2018-12-18T11:22:07.229Z,0.50
2018-12-18T11:24:36.503Z,0.50
2018-12-18T11:27:05.620Z,0.70
2018-12-18T11:29:34.502Z,0.73
2018-12-18T11:32:03.098Z,0.60
2018-12-18T11:34:31.755Z,0.60
2018-12-18T11:37:01.022Z,0.60
2018-12-18T11:39:30.102Z,0.43
2018-12-18T11:42:00.166Z,0.50
2018-12-18T11:44:29.398Z,0.60
2018-12-18T11:46:58.690Z,0.60
2018-12-18T11:49:27.705Z,0.50
2018-12-18T11:51:56.853Z,0.50
2018-12-18T11:54:26.191Z,0.50
2018-12-18T11:56:55.523Z,0.67
2018-12-18T11:59:24.842Z,0.70
2018-12-18T12:01:54.096Z,0.40
2018-12-18T12:04:23.657Z,1.10
2018-12-18T12:06:52.892Z,0.40
2018-12-18T12:09:21.993Z,0.77
2018-12-18T12:11:51.529Z,0.80
2018-12-18T12:14:20.858Z,0.60
2018-12-18T12:16:49.476Z,0.47
2018-12-18T12:19:18.449Z,0.77
2018-12-18T12:21:47.068Z,0.40
2018-12-18T12:24:16.133Z,0.60
2018-12-18T12:26:47.583Z,0.60
2018-12-18T12:29:16.952Z,0.73
2018-12-18T12:31:46.214Z,0.63
2018-12-18T12:34:15.479Z,0.50
2018-12-18T12:36:44.467Z,0.47
2018-12-18T12:39:13.417Z,0.60
2018-12-18T12:41:42.703Z,0.60
2018-12-18T12:44:11.984Z,0.50
2018-12-18T12:46:41.323Z,0.63
2018-12-18T12:49:10.623Z,1.20
2018-12-18T12:51:39.892Z,0.70
2018-12-18T12:54:10.077Z,0.50
2018-12-18T12:56:39.526Z,0.70
2018-12-18T12:59:08.126Z,0.50
2018-12-18T13:01:42.062Z,0.70
2018-12-18T13:04:08.259Z,0.50
2018-12-18T13:06:37.560Z,0.50
2018-12-18T13:09:07.652Z,0.53
2018-12-18T13:11:36.598Z,0.60
2018-12-18T13:14:05.802Z,0.80
2018-12-18T13:16:34.996Z,0.70
2018-12-18T13:19:04.042Z,0.60
2018-12-18T13:21:33.321Z,0.50
2018-12-18T13:24:02.681Z,0.60
2018-12-18T13:26:31.925Z,0.50
2018-12-18T13:29:01.290Z,0.60
2018-12-18T13:31:30.675Z,0.50
2018-12-18T13:33:59.443Z,0.97
2018-12-18T13:36:28.292Z,0.40
2018-12-18T13:38:57.586Z,0.83
2018-12-18T13:41:26.717Z,0.50
2018-12-18T13:43:55.346Z,0.87
2018-12-18T13:46:23.966Z,0.53
2018-12-18T13:48:52.589Z,0.50
2018-12-18T13:51:21.624Z,0.53
2018-12-18T13:53:50.907Z,0.80
2018-12-18T13:56:19.882Z,0.80
2018-12-18T13:58:49.112Z,0.70
2018-12-18T14:01:18.246Z,0.73
2018-12-18T14:03:47.593Z,0.70
2018-12-18T14:06:16.843Z,0.70
2018-12-18T14:08:45.887Z,0.50
2018-12-18T14:11:15.016Z,0.40
2018-12-18T14:13:45.714Z,0.80
2018-12-18T14:16:15.427Z,0.50
2018-12-18T14:18:44.785Z,0.47
2018-12-18T14:21:14.031Z,0.50
2018-12-18T14:23:43.549Z,0.77
2018-12-18T14:26:13.058Z,0.60
2018-12-18T14:28:42.072Z,0.40
2018-12-18T14:31:10.639Z,0.47
2018-12-18T14:33:39.971Z,0.60
2018-12-18T14:36:09.003Z,0.53
2018-12-18T14:38:38.314Z,0.50
2018-12-18T14:41:07.465Z,0.57
2018-12-18T14:43:36.486Z,0.73
2018-12-18T14:46:05.609Z,0.83
2018-12-18T14:48:34.680Z,1.20
2018-12-18T14:51:03.593Z,2.10
2018-12-18T14:53:32.708Z,0.83
2018-12-18T14:56:01.782Z,2.23
2018-12-18T14:58:30.856Z,1.30
2018-12-18T15:00:59.941Z,2.77
2018-12-18T15:03:29.105Z,1.10
2018-12-18T15:05:58.639Z,1.33
2018-12-18T15:08:27.905Z,1.40
2018-12-18T15:10:57.016Z,4.40
2018-12-18T15:13:25.662Z,3.83
2018-12-18T15:15:54.948Z,4.03
2018-12-18T15:18:24.356Z,1.50
2018-12-18T15:20:53.430Z,0.80
2018-12-18T15:23:22.541Z,0.80
2018-12-18T15:25:51.901Z,0.80
2018-12-18T15:28:21.369Z,1.10
2018-12-18T15:30:50.891Z,4.60
2018-12-18T15:33:20.193Z,3.80
2018-12-18T15:35:49.733Z,2.07
2018-12-18T15:38:18.876Z,1.53
2018-12-18T15:40:48.065Z,1.30
2018-12-18T15:43:17.533Z,1.60
2018-12-18T15:45:46.715Z,1.87
2018-12-18T15:48:15.878Z,2.23
2018-12-18T15:50:45.168Z,1.60
2018-12-18T15:53:14.685Z,1.70
2018-12-18T15:55:43.733Z,3.97
2018-12-18T15:58:13.070Z,1.87
2018-12-18T16:00:42.363Z,2.60
2018-12-18T16:03:11.449Z,2.93
2018-12-18T16:05:40.493Z,6.60
2018-12-18T16:08:09.605Z,2.67
2018-12-18T16:10:38.787Z,1.80
2018-12-18T16:13:07.891Z,2.20
2018-12-18T16:15:37.073Z,3.07
2018-12-18T16:18:06.154Z,3.13
2018-12-18T16:20:35.629Z,6.50
2018-12-18T16:23:04.577Z,2.70
2018-12-18T16:25:33.558Z,2.10
2018-12-18T16:28:02.463Z,1.40
2018-12-18T16:30:31.588Z,1.57
2018-12-18T16:33:00.727Z,3.33
2018-12-18T16:35:30.010Z,2.03
2018-12-18T16:37:58.617Z,5.50
2018-12-18T16:40:27.349Z,3.80
2018-12-18T16:42:55.964Z,1.60
2018-12-18T16:45:25.344Z,2.63
2018-12-18T16:47:54.222Z,3.50
2018-12-18T16:50:26.582Z,2.00
2018-12-18T16:52:54.795Z,2.23
2018-12-18T16:55:24.537Z,3.67
2018-12-18T16:57:53.822Z,5.47
2018-12-18T17:00:23.038Z,6.50
2018-12-18T17:02:52.248Z,9.10
2018-12-18T17:05:21.582Z,6.50
2018-12-18T17:07:50.902Z,5.40
2018-12-18T17:10:20.257Z,5.60
2018-12-18T17:12:55.173Z,4.27
2018-12-18T17:15:24.107Z,3.60
2018-12-18T17:17:53.358Z,3.30
2018-12-18T17:20:22.806Z,3.33
2018-12-18T17:22:52.283Z,2.77
2018-12-18T17:25:21.243Z,1.70
2018-12-18T17:27:49.915Z,2.00
2018-12-18T17:30:19.513Z,1.90
2018-12-18T17:32:48.520Z,2.60
2018-12-18T17:35:17.681Z,6.50
2018-12-18T17:37:47.006Z,3.30
2018-12-18T17:40:16.288Z,3.80
2018-12-18T17:42:45.554Z,4.40
2018-12-18T17:45:14.525Z,2.33
2018-12-18T17:47:43.670Z,1.40
2018-12-18T17:50:13.000Z,1.30
2018-12-18T17:52:42.069Z,1.00
2018-12-18T17:55:11.954Z,1.00
2018-12-18T17:57:41.287Z,1.23
2018-12-18T18:00:10.923Z,1.53
2018-12-18T18:02:40.247Z,0.80
2018-12-18T18:05:09.729Z,1.00
2018-12-18T18:07:42.973Z,0.83
2018-12-18T18:10:10.239Z,1.10
2018-12-18T18:12:39.122Z,1.10
2018-12-18T18:15:08.218Z,1.13
2018-12-18T18:17:37.571Z,1.27
2018-12-18T18:20:07.190Z,0.87
2018-12-18T18:22:37.099Z,1.00
2018-12-18T18:25:06.724Z,1.10
2018-12-18T18:27:36.190Z,1.00
2018-12-18T18:30:06.346Z,1.10
2018-12-18T18:32:35.499Z,1.40
2018-12-18T18:35:04.869Z,1.50
2018-12-18T18:37:34.078Z,1.30
2018-12-18T18:40:03.264Z,1.50
2018-12-18T18:42:32.323Z,1.57
2018-12-18T18:45:01.673Z,1.20
2018-12-18T18:47:30.781Z,1.33
2018-12-18T18:49:59.555Z,1.33
2018-12-18T18:52:28.698Z,1.40
2018-12-18T18:54:58.265Z,1.50
2018-12-18T18:57:26.942Z,1.07
2018-12-18T18:59:55.889Z,1.23
2018-12-18T19:02:25.101Z,1.50
2018-12-18T19:04:54.465Z,1.70
2018-12-18T19:07:23.499Z,1.70
2018-12-18T19:09:53.037Z,1.27
2018-12-18T19:12:22.261Z,1.13
2018-12-18T19:14:51.284Z,1.80
2018-12-18T19:17:20.495Z,1.30
2018-12-18T19:19:49.931Z,1.20
2018-12-18T19:22:19.249Z,1.83
2018-12-18T19:24:48.695Z,1.30
2018-12-18T19:27:17.869Z,1.27
2018-12-18T19:29:47.204Z,1.73
2018-12-18T19:32:16.527Z,1.73
2018-12-18T19:34:45.647Z,1.60
2018-12-18T19:37:15.079Z,1.43
2018-12-18T19:39:44.469Z,1.90
2018-12-18T19:42:13.788Z,1.70
2018-12-18T19:44:43.276Z,1.83
2018-12-18T19:47:12.990Z,1.90
2018-12-18T19:49:42.421Z,1.70
2018-12-18T19:52:11.923Z,2.50
2018-12-18T19:54:41.261Z,1.60
2018-12-18T19:57:10.315Z,2.63
2018-12-18T19:59:39.596Z,3.37
2018-12-18T20:02:08.796Z,3.53
2018-12-18T20:04:37.936Z,2.80
2018-12-18T20:07:07.221Z,2.40
2018-12-18T20:09:36.298Z,2.80
2018-12-18T20:12:05.576Z,3.70
2018-12-18T20:14:34.716Z,3.27
2018-12-18T20:17:03.386Z,3.80
2018-12-18T20:19:32.646Z,4.30
2018-12-18T20:22:01.267Z,6.20
2018-12-18T20:24:30.309Z,3.90
2018-12-18T20:26:59.213Z,3.77
2018-12-18T20:29:28.349Z,4.50
2018-12-18T20:31:57.661Z,3.50
2018-12-18T20:34:26.779Z,3.90
2018-12-18T20:36:55.663Z,4.30
2018-12-18T20:39:24.597Z,3.20
2018-12-18T20:41:53.464Z,4.03
2018-12-18T20:44:22.379Z,3.20
2018-12-18T20:46:51.592Z,2.50
2018-12-18T20:49:20.715Z,3.93
2018-12-18T20:51:49.594Z,4.00
2018-12-18T20:54:18.533Z,5.40
2018-12-18T20:56:47.367Z,3.00
2018-12-18T20:59:16.322Z,3.93
2018-12-18T21:01:45.306Z,4.73
2018-12-18T21:04:14.097Z,4.40
2018-12-18T21:06:42.883Z,7.77
2018-12-18T21:09:11.575Z,3.70
2018-12-18T21:11:40.231Z,2.60
2018-12-18T21:14:09.323Z,3.33
2018-12-18T21:16:38.481Z,3.80
2018-12-18T21:19:07.233Z,4.23
2018-12-18T21:21:36.198Z,3.20
2018-12-18T21:24:05.091Z,3.57
2018-12-18T21:26:34.180Z,4.07
2018-12-18T21:29:05.988Z,4.30
2018-12-18T21:31:34.993Z,3.57
2018-12-18T21:34:03.804Z,4.80
2018-12-18T21:36:32.656Z,3.63
2018-12-18T21:39:01.393Z,3.93
2018-12-18T21:41:30.253Z,4.03
2018-12-18T21:43:59.177Z,4.40
2018-12-18T21:46:27.889Z,4.10
2018-12-18T21:48:56.517Z,4.10
2018-12-18T21:51:25.159Z,3.77
2018-12-18T21:53:53.835Z,3.63
2018-12-18T21:56:22.829Z,3.97
2018-12-18T21:58:51.607Z,3.63
2018-12-18T22:01:20.424Z,3.50
2018-12-18T22:03:49.372Z,4.50
2018-12-18T22:06:18.469Z,3.37
2018-12-18T22:08:47.234Z,5.70
2018-12-18T22:11:16.119Z,3.50
2018-12-18T22:13:44.986Z,4.13
2018-12-18T22:16:13.873Z,3.87
2018-12-18T22:18:42.667Z,3.63
2018-12-18T22:21:11.578Z,3.73
2018-12-18T22:23:40.419Z,4.80
2018-12-18T22:26:09.279Z,4.50
2018-12-18T22:28:38.151Z,4.80
2018-12-18T22:31:07.025Z,5.30
2018-12-18T22:33:35.888Z,4.10
2018-12-18T22:36:04.629Z,4.20
2018-12-18T22:38:36.559Z,3.80
2018-12-18T22:41:05.240Z,3.43
2018-12-18T22:43:34.113Z,3.27
2018-12-18T22:46:02.889Z,3.40
2018-12-18T22:48:31.677Z,3.70
2018-12-18T22:51:02.003Z,3.90
2018-12-18T22:53:32.071Z,3.17
2018-12-18T22:56:01.492Z,3.00
2018-12-18T22:58:30.746Z,2.93
2018-12-18T23:01:02.924Z,2.93
2018-12-18T23:03:32.602Z,3.20
2018-12-18T23:06:01.849Z,3.87
2018-12-18T23:08:34.725Z,3.20
2018-12-18T23:11:04.036Z,2.70
2018-12-18T23:13:34.006Z,3.37
2018-12-18T23:16:05.678Z,2.90
2018-12-18T23:18:35.754Z,3.03
2018-12-18T23:21:04.509Z,3.20
2018-12-18T23:23:33.877Z,4.10
2018-12-18T23:26:04.434Z,3.60
2018-12-18T23:28:33.160Z,3.40
2018-12-18T23:31:02.120Z,3.73
2018-12-18T23:33:31.625Z,3.27
2018-12-18T23:36:00.647Z,3.50
2018-12-18T23:38:29.756Z,3.40
2018-12-18T23:40:58.872Z,3.47
2018-12-18T23:43:27.591Z,2.83
2018-12-18T23:45:56.474Z,2.93
2018-12-18T23:48:25.581Z,2.50
2018-12-18T23:50:54.608Z,2.97
2018-12-18T23:53:23.333Z,4.07
2018-12-18T23:55:53.279Z,3.30
2018-12-18T23:58:22.110Z,5.30
